Time;durP1;ratioP1;P1;durP2;ratioP2;P2;SDS_P1;SDS_P2;PMS_P1;PMS_P2;Temp;Humidity;BMP_temperature;BMP_pressure;BME280_temperature;BME280_humidity;BME280_pressure;Samples;Min_cycle;Max_cycle;Signal;HPM_P1;HPM_P2
2022/12/25 00:01:38;;;;;;;;;;;;;;;9.68;78.69;98453.81;7387862;19;19919;-69
2022/12/25 00:04:04;;;;;;;;;;;;;;;9.75;78.85;98454.06;7391105;19;19919;-69
2022/12/25 00:06:31;;;;;;;;;;;;;;;9.72;78.69;98449.09;7385412;19;19922;-70
2022/12/25 00:08:57;;;;;;;;;;;;;;;9.70;78.75;98453.69;7388973;19;19926;-70
2022/12/25 00:11:24;;;;;;;;;;;;;;;9.78;78.62;98453.75;7388030;19;19927;-70
2022/12/25 00:13:50;;;;;;;;;;;;;;;9.73;78.96;98453.38;7389532;19;19915;-69
2022/12/25 00:16:18;;;;;;;;;;;;;;;9.73;78.58;98459.47;7391045;19;19974;-69
2022/12/25 00:18:45;;;;;;;;;;;;;;;9.95;77.92;98458.22;7385762;19;19926;-69
2022/12/25 00:21:11;;;;;;;;;;;;;;;9.96;78.00;98456.44;7384185;19;19926;-69
2022/12/25 00:23:38;;;;;;;;;;;;;;;9.90;78.48;98455.22;7388011;19;19923;-69
2022/12/25 00:26:05;;;;;;;;;;;;;;;9.99;78.15;98454.31;7389034;19;20340;-70
2022/12/25 00:28:32;;;;;;;;;;;;;;;9.96;78.09;98454.63;7387873;19;19925;-69
2022/12/25 00:30:58;;;;;;;;;;;;;;;9.94;77.97;98453.09;7387864;19;19925;-70
2022/12/25 00:33:25;;;;;;;;;;;;;;;9.92;78.03;98458.53;7387397;19;19954;-69
2022/12/25 00:35:55;;;;;;;;;;;;;;;9.97;78.07;98453.63;7386486;19;19923;-68
2022/12/25 00:38:22;;;;;;;;;;;;;;;9.93;78.38;98452.28;7387297;19;19915;-69
2022/12/25 00:40:49;;;;;;;;;;;;;;;9.90;78.32;98439.38;7384317;19;19921;-68
2022/12/25 00:43:15;;;;;;;;;;;;;;;9.78;78.97;98440.56;7388911;19;19949;-68
2022/12/25 00:45:42;;;;;;;;;;;;;;;9.85;78.92;98450.38;7386554;19;19918;-68
2022/12/25 00:48:08;;;;;;;;;;;;;;;9.81;78.87;98445.53;7386113;19;19926;-69
2022/12/25 00:50:38;;;;;;;;;;;;;;;9.75;79.18;98443.50;7385800;19;19919;-68
2022/12/25 00:53:04;;;;;;;;;;;;;;;9.82;79.13;98441.91;7385939;19;19935;-67
2022/12/25 00:55:31;;;;;;;;;;;;;;;9.85;78.79;98445.09;7385255;19;19918;-67
2022/12/25 00:57:58;;;;;;;;;;;;;;;9.85;78.79;98452.19;7387609;19;19923;-68
2022/12/25 01:00:25;;;;;;;;;;;;;;;9.93;78.23;98444.34;7379835;19;19923;-69
2022/12/25 01:02:52;;;;;;;;;;;;;;;9.88;78.32;98451.88;7386400;19;19919;-68
2022/12/25 01:05:19;;;;;;;;;;;;;;;9.83;78.31;98443.56;7388142;19;19970;-68
2022/12/25 01:07:46;;;;;;;;;;;;;;;9.81;78.37;98437.59;7385563;19;19914;-69
2022/12/25 01:10:21;;;;;;;;;;;;;;;9.92;77.98;98440.03;7380787;19;19978;-67
2022/12/25 01:12:48;;;;;;;;;;;;;;;9.88;77.91;98444.78;7386207;19;19929;-69
2022/12/25 01:15:15;;;;;;;;;;;;;;;9.98;77.58;98450.00;7380645;19;19939;-68
2022/12/25 01:17:45;;;;;;;;;;;;;;;10.02;77.46;98459.28;7377643;19;19918;-68
2022/12/25 01:20:12;;;;;;;;;;;;;;;9.99;77.39;98459.59;7381839;19;19965;-68
2022/12/25 01:22:39;;;;;;;;;;;;;;;9.99;77.78;98459.59;7383614;19;19927;-70
2022/12/25 01:25:07;;;;;;;;;;;;;;;9.91;77.80;98463.97;7386208;19;19922;-68
2022/12/25 01:27:36;;;;;;;;;;;;;;;9.93;77.78;98469.94;7385408;19;19927;-68
2022/12/25 01:30:12;;;;;;;;;;;;;;;9.96;77.78;98465.19;7378667;19;20399;-69
2022/12/25 01:32:39;;;;;;;;;;;;;;;9.87;77.88;98480.13;7385470;19;19926;-69
2022/12/25 01:35:07;;;;;;;;;;;;;;;9.90;77.79;98476.38;7387505;19;19940;-69
2022/12/25 01:37:38;;;;;;;;;;;;;;;9.85;78.00;98479.44;7384381;19;19974;-69
2022/12/25 01:40:09;;;;;;;;;;;;;;;9.88;77.95;98470.38;7382381;19;19956;-69
2022/12/25 01:42:36;;;;;;;;;;;;;;;9.82;78.25;98473.59;7383323;19;19957;-69
2022/12/25 01:45:21;;;;;;;;;;;;;;;9.79;78.22;98480.00;7384349;19;19923;-69
2022/12/25 01:47:48;;;;;;;;;;;;;;;9.78;78.23;98486.28;7386076;19;19999;-69
2022/12/25 01:50:14;;;;;;;;;;;;;;;9.84;78.16;98490.16;7389065;19;20360;-69
2022/12/25 01:52:41;;;;;;;;;;;;;;;9.78;78.45;98488.09;7385900;19;20276;-69
2022/12/25 01:55:10;;;;;;;;;;;;;;;9.73;78.40;98490.34;7386216;19;19923;-69
2022/12/25 01:57:36;;;;;;;;;;;;;;;9.85;78.16;98478.63;7387285;19;19989;-69
2022/12/25 02:00:03;;;;;;;;;;;;;;;9.63;78.87;98467.44;7385793;19;19919;-70
2022/12/25 02:02:30;;;;;;;;;;;;;;;9.73;78.61;98469.22;7384416;19;19930;-69
2022/12/25 02:04:58;;;;;;;;;;;;;;;9.73;78.63;98477.16;7385999;19;20273;-69
2022/12/25 02:07:27;;;;;;;;;;;;;;;9.72;78.67;98472.84;7385506;19;19918;-69
2022/12/25 02:09:54;;;;;;;;;;;;;;;9.72;79.01;98470.22;7380291;19;19915;-69
2022/12/25 02:12:24;;;;;;;;;;;;;;;9.65;79.16;98477.88;7386262;19;20336;-69
2022/12/25 02:14:51;;;;;;;;;;;;;;;9.65;79.10;98472.59;7382275;19;19923;-69
2022/12/25 02:17:31;;;;;;;;;;;;;;;9.59;79.63;98467.91;7376070;19;19926;-69
2022/12/25 02:20:03;;;;;;;;;;;;;;;9.62;79.62;98468.44;7382163;19;19934;-69
2022/12/25 02:22:38;;;;;;;;;;;;;;;9.49;79.65;98467.97;7383802;19;20569;-69
2022/12/25 02:25:23;;;;;;;;;;;;;;;9.57;79.73;98469.88;7385252;19;19924;-70
2022/12/25 02:28:08;;;;;;;;;;;;;;;9.72;79.36;98467.56;7385359;19;19929;-69
2022/12/25 02:30:38;;;;;;;;;;;;;;;9.85;78.92;98460.13;7384359;19;19919;-69
2022/12/25 02:35:52;;;;;;;;;;;;;;;9.64;79.62;98457.75;7383501;19;19922;-68
2022/12/25 02:38:20;;;;;;;;;;;;;;;9.76;79.16;98456.53;7385109;19;19935;-69
2022/12/25 02:40:51;;;;;;;;;;;;;;;9.65;79.71;98460.22;7381811;19;19983;-69
2022/12/25 03:08:39;;;;;;;;;;;;;;;9.75;79.73;98462.81;7386899;19;19918;-68
2022/12/25 03:16:53;;;;;;;;;;;;;;;9.40;81.04;98445.91;7392203;19;20277;-69
2022/12/25 03:27:40;;;;;;;;;;;;;;;9.62;80.56;98441.19;7389266;19;19919;-69
2022/12/25 03:33:06;;;;;;;;;;;;;;;9.63;80.93;98435.75;7392482;19;20256;-69
2022/12/25 03:36:05;;;;;;;;;;;;;;;9.62;80.89;98439.38;7392548;19;19919;-70
2022/12/25 03:44:40;;;;;;;;;;;;;;;9.55;81.64;98405.78;7391233;19;19958;-69
2022/12/25 04:36:50;;;;;;;;;;;;;;;9.54;80.96;98383.84;7387276;19;19922;-69
2022/12/25 04:39:17;;;;;;;;;;;;;;;9.56;81.04;98381.06;7383092;19;19990;-69
2022/12/25 04:41:43;;;;;;;;;;;;;;;9.64;80.67;98381.97;7388613;19;19934;-70
2022/12/25 04:44:10;;;;;;;;;;;;;;;9.59;80.72;98375.47;7386681;19;19923;-70
2022/12/25 04:46:37;;;;;;;;;;;;;;;9.64;80.50;98384.59;7384147;19;19935;-70
2022/12/25 04:49:03;;;;;;;;;;;;;;;9.59;80.62;98384.22;7384862;19;19919;-69
2022/12/25 04:51:30;;;;;;;;;;;;;;;9.52;81.11;98387.59;7390124;19;20371;-69
2022/12/25 04:53:56;;;;;;;;;;;;;;;9.54;81.17;98389.13;7387875;19;20350;-69
2022/12/25 04:56:23;;;;;;;;;;;;;;;9.63;80.76;98382.94;7387079;19;19915;-70
2022/12/25 04:58:49;;;;;;;;;;;;;;;9.52;81.08;98379.69;7388412;19;19947;-69
2022/12/25 05:01:16;;;;;;;;;;;;;;;9.44;81.25;98372.50;7384532;19;19954;-69
2022/12/25 05:03:43;;;;;;;;;;;;;;;9.40;81.52;98371.13;7384476;19;20011;-69
2022/12/25 05:06:10;;;;;;;;;;;;;;;9.48;81.29;98362.47;7387530;19;19923;-69
2022/12/25 05:08:36;;;;;;;;;;;;;;;9.53;81.08;98368.13;7389664;19;19922;-69
2022/12/25 05:11:07;;;;;;;;;;;;;;;9.56;80.59;98365.22;7386794;19;19911;-69
2022/12/25 05:13:33;;;;;;;;;;;;;;;9.49;80.85;98354.41;7387382;19;20343;-70
2022/12/25 05:16:03;;;;;;;;;;;;;;;9.47;81.17;98353.72;7387500;19;19915;-69
2022/12/25 05:18:29;;;;;;;;;;;;;;;9.52;80.78;98363.84;7384930;19;20582;-68
2022/12/25 05:20:56;;;;;;;;;;;;;;;9.59;80.61;98354.34;7387471;19;20380;-68
2022/12/25 05:23:23;;;;;;;;;;;;;;;9.43;81.16;98355.84;7390205;19;19918;-69
2022/12/25 05:25:49;;;;;;;;;;;;;;;9.55;80.91;98353.78;7386212;19;19945;-68
2022/12/25 05:28:16;;;;;;;;;;;;;;;9.57;80.63;98362.41;7382299;19;19946;-68
2022/12/25 05:30:42;;;;;;;;;;;;;;;9.48;80.80;98350.13;7389679;19;19927;-69
2022/12/25 05:33:09;;;;;;;;;;;;;;;9.56;80.62;98350.19;7389124;19;20300;-68
2022/12/25 05:35:36;;;;;;;;;;;;;;;9.57;80.55;98354.47;7383277;19;19922;-68
2022/12/25 05:38:03;;;;;;;;;;;;;;;9.64;80.34;98347.63;7382688;19;19922;-68
2022/12/25 05:40:30;;;;;;;;;;;;;;;9.73;80.27;98358.28;7388243;19;19979;-68
2022/12/25 05:42:56;;;;;;;;;;;;;;;9.75;80.27;98356.31;7384137;19;20339;-68
2022/12/25 05:45:23;;;;;;;;;;;;;;;9.72;80.35;98351.34;7383878;19;19923;-68
2022/12/25 05:47:49;;;;;;;;;;;;;;;9.67;80.20;98344.69;7386972;19;19943;-68
2022/12/25 05:50:16;;;;;;;;;;;;;;;9.77;80.24;98346.41;7388141;19;19939;-68
2022/12/25 05:52:43;;;;;;;;;;;;;;;9.82;79.92;98341.50;7384335;19;19933;-68
2022/12/25 05:55:09;;;;;;;;;;;;;;;9.74;80.10;98333.50;7383722;19;19959;-68
2022/12/25 05:57:36;;;;;;;;;;;;;;;9.75;79.90;98327.25;7388209;19;19943;-68
2022/12/25 06:00:03;;;;;;;;;;;;;;;9.77;80.18;98336.69;7381780;19;19951;-69
2022/12/25 06:02:37;;;;;;;;;;;;;;;9.77;80.00;98333.19;7384407;19;19926;-68
2022/12/25 06:05:04;;;;;;;;;;;;;;;9.74;80.06;98325.56;7385138;19;20339;-68
2022/12/25 06:07:31;;;;;;;;;;;;;;;9.71;80.07;98328.53;7383123;19;19922;-69
2022/12/25 06:09:57;;;;;;;;;;;;;;;9.70;79.95;98319.78;7380161;19;19933;-69
2022/12/25 06:12:24;;;;;;;;;;;;;;;9.64;80.11;98320.38;7384552;19;19922;-68
2022/12/25 06:14:51;;;;;;;;;;;;;;;9.60;80.37;98319.84;7385598;19;19922;-68
2022/12/25 06:17:17;;;;;;;;;;;;;;;9.70;79.93;98324.22;7382270;19;19915;-69
2022/12/25 06:19:44;;;;;;;;;;;;;;;9.75;79.76;98314.03;7383591;19;19925;-68
2022/12/25 06:22:10;;;;;;;;;;;;;;;9.73;79.96;98313.34;7385298;19;19923;-68
2022/12/25 06:24:37;;;;;;;;;;;;;;;9.79;79.60;98312.75;7386152;19;19927;-68
2022/12/25 06:27:03;;;;;;;;;;;;;;;9.78;79.68;98313.72;7383404;19;19938;-68
2022/12/25 06:29:30;;;;;;;;;;;;;;;9.71;79.81;98310.03;7382408;19;19919;-68
2022/12/25 06:31:57;;;;;;;;;;;;;;;9.76;79.67;98292.72;7383511;19;19934;-68
2022/12/25 06:34:24;;;;;;;;;;;;;;;9.75;79.82;98300.84;7384200;19;19947;-68
2022/12/25 06:36:51;;;;;;;;;;;;;;;9.72;79.75;98309.06;7385181;19;19927;-68
2022/12/25 06:39:17;;;;;;;;;;;;;;;9.71;80.00;98304.75;7387621;19;19930;-68
2022/12/25 06:41:44;;;;;;;;;;;;;;;9.65;80.02;98300.91;7389607;19;19926;-68
2022/12/25 06:44:10;;;;;;;;;;;;;;;9.67;80.14;98307.69;7388923;19;20328;-68
2022/12/25 06:46:37;;;;;;;;;;;;;;;9.66;80.02;98311.34;7389725;19;19921;-69
2022/12/25 06:49:04;;;;;;;;;;;;;;;9.80;79.64;98317.06;7389545;19;19922;-68
2022/12/25 06:51:31;;;;;;;;;;;;;;;9.73;79.86;98308.06;7394440;19;19918;-68
2022/12/25 06:53:58;;;;;;;;;;;;;;;9.67;79.69;98306.88;7391304;19;20355;-68
2022/12/25 06:56:25;;;;;;;;;;;;;;;9.68;80.03;98316.44;7388322;19;19931;-68
2022/12/25 06:58:56;;;;;;;;;;;;;;;9.64;80.11;98315.09;7389725;19;19947;-68
2022/12/25 07:01:27;;;;;;;;;;;;;;;9.74;79.74;98321.16;7385442;19;19954;-68
2022/12/25 07:03:55;;;;;;;;;;;;;;;9.78;80.21;98327.75;7388657;19;19946;-68
2022/12/25 07:06:22;;;;;;;;;;;;;;;9.84;79.75;98328.97;7393960;19;19915;-70
2022/12/25 07:08:48;;;;;;;;;;;;;;;9.82;79.90;98330.94;7391254;19;19938;-68
2022/12/25 07:11:15;;;;;;;;;;;;;;;9.78;80.03;98324.31;7392038;19;19929;-67
2022/12/25 07:13:41;;;;;;;;;;;;;;;9.77;79.61;98322.63;7389906;19;19918;-67
2022/12/25 07:16:08;;;;;;;;;;;;;;;9.79;79.69;98325.94;7391282;19;20394;-67
2022/12/25 07:18:35;;;;;;;;;;;;;;;9.79;79.73;98331.22;7390633;19;19922;-68
2022/12/25 07:21:05;;;;;;;;;;;;;;;9.72;80.07;98340.75;7393595;19;19919;-68
2022/12/25 07:23:32;;;;;;;;;;;;;;;9.79;79.69;98341.81;7394905;19;19923;-68
2022/12/25 07:25:59;;;;;;;;;;;;;;;9.79;79.58;98336.50;7394960;19;19936;-67
2022/12/25 07:28:25;;;;;;;;;;;;;;;9.77;79.71;98334.03;7392053;19;20297;-67
2022/12/25 07:30:52;;;;;;;;;;;;;;;9.81;79.63;98330.09;7387499;19;19918;-68
2022/12/25 07:33:19;;;;;;;;;;;;;;;9.78;79.58;98332.22;7389316;19;19923;-68
2022/12/25 07:35:45;;;;;;;;;;;;;;;9.67;79.63;98325.38;7390310;19;19918;-68
2022/12/25 07:38:12;;;;;;;;;;;;;;;9.69;79.93;98315.47;7389494;19;21204;-68
2022/12/25 07:40:38;;;;;;;;;;;;;;;9.64;80.01;98305.34;7387727;19;19929;-68
2022/12/25 07:43:05;;;;;;;;;;;;;;;9.62;80.37;98299.41;7391141;19;20362;-68
2022/12/25 07:45:32;;;;;;;;;;;;;;;9.62;80.29;98307.31;7390191;19;19919;-68
2022/12/25 07:47:58;;;;;;;;;;;;;;;9.64;80.43;98305.34;7386395;19;20005;-69
2022/12/25 07:50:31;;;;;;;;;;;;;;;9.66;80.72;98298.13;7388051;19;19929;-68
2022/12/25 07:52:57;;;;;;;;;;;;;;;9.57;80.71;98285.81;7383325;19;19906;-69
2022/12/25 07:55:24;;;;;;;;;;;;;;;9.62;80.94;98278.25;7387437;19;20331;-68
2022/12/25 07:57:54;;;;;;;;;;;;;;;9.59;81.22;98267.19;7383242;19;19927;-69
2022/12/25 08:00:21;;;;;;;;;;;;;;;9.72;80.74;98262.34;7388788;19;20387;-68
2022/12/25 08:02:48;;;;;;;;;;;;;;;9.85;80.38;98275.16;7388795;19;20279;-69
2022/12/25 08:05:15;;;;;;;;;;;;;;;9.76;80.27;98278.69;7390824;19;19982;-69
2022/12/25 08:07:41;;;;;;;;;;;;;;;9.81;80.28;98281.72;7384156;19;20345;-68
2022/12/25 08:10:08;;;;;;;;;;;;;;;9.85;79.91;98277.81;7383171;19;21133;-69
2022/12/25 08:12:35;;;;;;;;;;;;;;;9.92;80.04;98288.56;7385139;19;19919;-69
2022/12/25 08:15:01;;;;;;;;;;;;;;;9.92;79.90;98293.84;7384845;19;19923;-69
2022/12/25 08:17:28;;;;;;;;;;;;;;;9.97;79.83;98302.97;7389177;19;20007;-69
2022/12/25 08:20:00;;;;;;;;;;;;;;;10.02;79.74;98300.69;7387745;19;20025;-69
2022/12/25 08:22:27;;;;;;;;;;;;;;;9.94;79.98;98305.09;7388897;19;20371;-69
2022/12/25 08:24:54;;;;;;;;;;;;;;;9.96;79.88;98303.16;7383502;19;20386;-68
2022/12/25 08:27:27;;;;;;;;;;;;;;;9.90;79.90;98320.44;7384932;19;19918;-69
2022/12/25 08:29:56;;;;;;;;;;;;;;;10.07;79.61;98316.94;7387478;19;19939;-68
2022/12/25 08:32:25;;;;;;;;;;;;;;;10.06;79.25;98317.94;7388687;19;19918;-68
2022/12/25 08:34:52;;;;;;;;;;;;;;;9.98;79.50;98328.44;7380130;19;19946;-68
2022/12/25 08:37:19;;;;;;;;;;;;;;;10.05;79.45;98331.28;7385437;19;20456;-70
2022/12/25 08:39:45;;;;;;;;;;;;;;;10.05;79.34;98310.97;7383681;19;20477;-68
2022/12/25 08:42:14;;;;;;;;;;;;;;;10.04;79.52;98304.03;7385579;19;19938;-68
2022/12/25 08:44:40;;;;;;;;;;;;;;;10.19;78.95;98314.88;7381925;19;19922;-69
2022/12/25 08:47:07;;;;;;;;;;;;;;;10.27;79.20;98319.41;7384058;19;19938;-67
2022/12/25 08:49:33;;;;;;;;;;;;;;;10.30;79.05;98319.13;7387983;19;19922;-67
2022/12/25 08:52:02;;;;;;;;;;;;;;;10.37;78.84;98322.78;7384896;19;19926;-68
2022/12/25 08:54:31;;;;;;;;;;;;;;;10.38;79.10;98311.22;7387105;19;20384;-69
2022/12/25 08:56:57;;;;;;;;;;;;;;;10.38;79.14;98313.06;7385738;19;20214;-69
2022/12/25 08:59:28;;;;;;;;;;;;;;;10.31;79.00;98311.00;7382585;19;19974;-68
2022/12/25 09:01:55;;;;;;;;;;;;;;;10.27;78.52;98312.31;7386413;19;19918;-69
2022/12/25 09:04:21;;;;;;;;;;;;;;;10.22;78.44;98304.00;7389914;19;19939;-69
2022/12/25 09:06:49;;;;;;;;;;;;;;;10.15;78.16;98291.56;7391880;19;19919;-69
2022/12/25 09:09:15;;;;;;;;;;;;;;;10.08;78.43;98284.25;7386453;19;19923;-69
2022/12/25 09:11:48;;;;;;;;;;;;;;;9.94;78.49;98279.50;7388560;19;19914;-69
2022/12/25 09:14:15;;;;;;;;;;;;;;;9.86;78.93;98263.59;7386270;19;19926;-68
2022/12/25 09:16:44;;;;;;;;;;;;;;;9.77;79.51;98257.44;7386093;19;19918;-69
2022/12/25 09:19:10;;;;;;;;;;;;;;;9.80;79.92;98253.66;7386843;19;19942;-68
2022/12/25 09:21:37;;;;;;;;;;;;;;;9.95;79.87;98251.25;7390296;19;19920;-69
2022/12/25 09:24:04;;;;;;;;;;;;;;;10.17;79.56;98249.94;7389380;19;19978;-68
2022/12/25 09:26:30;;;;;;;;;;;;;;;10.30;79.73;98260.94;7385674;19;19975;-67
2022/12/25 09:28:59;;;;;;;;;;;;;;;10.44;79.29;98263.00;7383974;19;19947;-69
2022/12/25 09:31:26;;;;;;;;;;;;;;;10.40;79.45;98266.97;7385840;19;19918;-69
2022/12/25 09:33:54;;;;;;;;;;;;;;;10.55;79.47;98275.94;7386580;19;19922;-68
2022/12/25 09:36:22;;;;;;;;;;;;;;;10.64;79.01;98274.19;7385444;19;20560;-68
2022/12/25 09:38:49;;;;;;;;;;;;;;;10.71;79.16;98263.78;7386914;19;19978;-68
2022/12/25 09:41:41;;;;;;;;;;;;;;;10.80;78.74;98276.06;7384307;19;19922;-68
2022/12/25 09:44:13;;;;;;;;;;;;;;;10.94;78.89;98270.16;7385783;19;19926;-68
2022/12/25 09:46:41;;;;;;;;;;;;;;;11.02;78.85;98274.66;7384309;19;19939;-69
2022/12/25 09:49:13;;;;;;;;;;;;;;;11.13;79.01;98278.81;7381639;19;20355;-69
2022/12/25 09:51:39;;;;;;;;;;;;;;;11.28;78.75;98281.66;7379185;19;20031;-68
2022/12/25 09:54:10;;;;;;;;;;;;;;;11.33;77.93;98282.84;7382794;19;20348;-68
2022/12/25 09:56:36;;;;;;;;;;;;;;;11.49;78.46;98282.03;7384322;19;19933;-68
2022/12/25 09:59:03;;;;;;;;;;;;;;;11.58;78.07;98283.69;7384815;19;19934;-68
2022/12/25 10:01:34;;;;;;;;;;;;;;;11.67;78.04;98271.28;7382283;19;20379;-67
2022/12/25 10:04:04;;;;;;;;;;;;;;;11.92;77.49;98266.00;7383624;19;19926;-68
2022/12/25 10:06:51;;;;;;;;;;;;;;;11.98;77.59;98270.63;7383767;19;20327;-68
2022/12/25 10:09:21;;;;;;;;;;;;;;;12.13;77.35;98261.00;7376443;19;19931;-69
2022/12/25 10:11:48;;;;;;;;;;;;;;;12.13;77.04;98270.78;7383339;19;19942;-69
2022/12/25 10:14:36;;;;;;;;;;;;;;;12.26;76.91;98266.59;7390901;19;19926;-69
2022/12/25 10:17:15;;;;;;;;;;;;;;;12.34;76.56;98257.81;7396475;19;20361;-68
2022/12/25 10:19:42;;;;;;;;;;;;;;;12.42;76.17;98251.66;7396470;19;19986;-68
2022/12/25 10:22:10;;;;;;;;;;;;;;;12.52;76.10;98250.47;7399904;19;19923;-68
2022/12/25 10:24:39;;;;;;;;;;;;;;;12.49;75.57;98244.69;7399968;19;19923;-68
2022/12/25 10:27:09;;;;;;;;;;;;;;;12.53;75.62;98240.66;7398170;19;19996;-68
2022/12/25 10:29:37;;;;;;;;;;;;;;;12.52;75.74;98239.84;7396975;19;20351;-69
2022/12/25 10:32:03;;;;;;;;;;;;;;;12.50;75.74;98235.72;7400020;19;19918;-69
2022/12/25 10:34:31;;;;;;;;;;;;;;;12.57;75.13;98238.50;7401338;19;19918;-68
2022/12/25 10:36:57;;;;;;;;;;;;;;;12.67;75.00;98236.50;7401631;19;19919;-68
2022/12/25 10:39:24;;;;;;;;;;;;;;;12.73;74.58;98227.81;7398164;19;19926;-68
2022/12/25 10:41:55;;;;;;;;;;;;;;;12.98;73.81;98214.41;7394254;19;20340;-69
2022/12/25 10:44:25;;;;;;;;;;;;;;;13.17;73.96;98217.47;7396566;19;19919;-68
2022/12/25 10:46:55;;;;;;;;;;;;;;;13.15;73.91;98214.16;7400122;19;19939;-69
2022/12/25 10:49:23;;;;;;;;;;;;;;;13.45;73.21;98202.84;7396583;19;21109;-69
2022/12/25 10:51:49;;;;;;;;;;;;;;;13.64;72.95;98204.19;7395709;19;19918;-69
2022/12/25 10:54:19;;;;;;;;;;;;;;;13.58;72.04;98189.78;7396285;19;20304;-69
2022/12/25 10:56:52;;;;;;;;;;;;;;;13.51;71.47;98187.03;7399260;19;20639;-69
2022/12/25 10:59:19;;;;;;;;;;;;;;;13.50;72.20;98193.31;7392951;19;19919;-69
2022/12/25 11:01:45;;;;;;;;;;;;;;;13.39;71.72;98188.44;7399821;19;19931;-69
2022/12/25 11:04:25;;;;;;;;;;;;;;;13.46;72.03;98184.06;7401605;19;19919;-69
2022/12/25 11:07:18;;;;;;;;;;;;;;;13.48;72.28;98174.09;7397584;19;19930;-68
2022/12/25 11:09:51;;;;;;;;;;;;;;;13.36;72.18;98170.22;7392824;19;20384;-68
2022/12/25 11:19:02;;;;;;;;;;;;;;;13.26;72.64;98165.13;7371593;19;19921;-68
2022/12/25 11:21:30;;;;;;;;;;;;;;;13.43;71.83;98167.63;7394481;19;19918;-68
2022/12/25 11:23:58;;;;;;;;;;;;;;;13.46;71.65;98165.47;7397472;19;19919;-68
2022/12/25 11:26:25;;;;;;;;;;;;;;;13.34;71.76;98164.22;7390298;19;19952;-68
2022/12/25 11:28:52;;;;;;;;;;;;;;;13.30;71.96;98163.78;7385869;19;21099;-68
2022/12/25 11:31:19;;;;;;;;;;;;;;;13.40;71.86;98158.19;7391150;19;19919;-68
2022/12/25 11:33:48;;;;;;;;;;;;;;;13.48;71.94;98162.63;7389819;19;19918;-68
2022/12/25 11:36:38;;;;;;;;;;;;;;;13.53;71.68;98155.78;7391892;19;19919;-68
2022/12/25 11:39:23;;;;;;;;;;;;;;;13.59;72.03;98157.72;7384999;19;19919;-68
2022/12/25 11:41:50;;;;;;;;;;;;;;;13.70;71.75;98147.66;7382443;19;19951;-69
2022/12/25 11:44:21;;;;;;;;;;;;;;;13.86;71.46;98146.66;7379234;19;19918;-68
2022/12/25 11:46:50;;;;;;;;;;;;;;;13.96;71.43;98149.88;7390733;19;19926;-69
2022/12/25 11:49:17;;;;;;;;;;;;;;;13.92;71.42;98156.56;7389740;19;19929;-68
2022/12/25 11:51:45;;;;;;;;;;;;;;;13.94;70.91;98136.75;7391947;19;19927;-69
2022/12/25 11:54:17;;;;;;;;;;;;;;;14.07;71.03;98132.63;7390050;19;19933;-69
2022/12/25 11:56:44;;;;;;;;;;;;;;;14.24;71.03;98137.59;7386292;19;20342;-68
2022/12/25 11:59:27;;;;;;;;;;;;;;;14.57;70.83;98136.38;7383552;19;19919;-70
2022/12/25 12:02:08;;;;;;;;;;;;;;;14.76;69.40;98125.13;7390044;19;19936;-68
2022/12/25 12:04:37;;;;;;;;;;;;;;;14.78;69.25;98120.44;7389492;19;19923;-69
2022/12/25 12:07:14;;;;;;;;;;;;;;;14.89;68.53;98127.09;7388927;19;19992;-69
2022/12/25 12:09:44;;;;;;;;;;;;;;;15.00;69.10;98112.44;7386512;19;21206;-68
2022/12/25 12:12:15;;;;;;;;;;;;;;;14.89;69.52;98106.59;7391096;19;19915;-68
2022/12/25 12:14:46;;;;;;;;;;;;;;;14.84;69.67;98092.22;7380337;19;19911;-67
2022/12/25 12:17:14;;;;;;;;;;;;;;;14.60;70.66;98080.91;7387223;19;19926;-70
2022/12/25 12:19:40;;;;;;;;;;;;;;;14.83;69.09;98072.75;7384216;19;20343;-69
2022/12/25 12:22:13;;;;;;;;;;;;;;;14.95;68.29;98077.56;7388128;19;19922;-69
2022/12/25 12:24:40;;;;;;;;;;;;;;;15.11;68.61;98069.28;7387236;19;19925;-68
2022/12/25 12:27:24;;;;;;;;;;;;;;;15.00;68.89;98064.50;7385955;19;19922;-68
2022/12/25 12:29:52;;;;;;;;;;;;;;;15.02;67.53;98062.47;7383299;19;19943;-68
2022/12/25 12:32:25;;;;;;;;;;;;;;;14.98;67.58;98061.19;7387251;19;19933;-68
2022/12/25 12:34:51;;;;;;;;;;;;;;;14.86;68.07;98059.06;7386458;19;19919;-68
2022/12/25 12:37:20;;;;;;;;;;;;;;;15.10;67.88;98055.16;7385700;19;19919;-69
2022/12/25 12:39:51;;;;;;;;;;;;;;;15.09;67.40;98050.84;7387732;19;20944;-69
2022/12/25 12:42:24;;;;;;;;;;;;;;;14.95;66.20;98058.91;7388971;19;19923;-68
2022/12/25 12:44:51;;;;;;;;;;;;;;;14.75;66.86;98054.25;7384795;19;19946;-68
2022/12/25 12:47:27;;;;;;;;;;;;;;;14.79;67.13;98062.66;7380154;19;19915;-69
2022/12/25 12:50:02;;;;;;;;;;;;;;;14.70;67.13;98064.63;7379492;19;20476;-69
2022/12/25 12:52:33;;;;;;;;;;;;;;;14.62;67.50;98064.75;7388092;19;19915;-68
2022/12/25 12:55:04;;;;;;;;;;;;;;;14.69;68.04;98074.47;7387477;19;20344;-68
2022/12/25 12:57:33;;;;;;;;;;;;;;;14.83;67.37;98075.41;7387760;19;19936;-68
2022/12/25 13:00:00;;;;;;;;;;;;;;;15.03;67.69;98067.59;7391974;19;19930;-69
2022/12/25 13:02:43;;;;;;;;;;;;;;;15.03;66.34;98069.44;7387430;19;19927;-68
2022/12/25 13:05:12;;;;;;;;;;;;;;;14.97;66.32;98067.53;7382412;19;19965;-67
2022/12/25 13:07:58;;;;;;;;;;;;;;;15.08;65.53;98059.03;7383927;19;19974;-68
2022/12/25 13:10:25;;;;;;;;;;;;;;;15.19;66.29;98047.84;7389053;19;20264;-68
2022/12/25 13:12:53;;;;;;;;;;;;;;;15.20;65.88;98046.84;7388111;19;20005;-69
2022/12/25 13:15:20;;;;;;;;;;;;;;;15.19;65.88;98039.03;7382877;19;19923;-68
2022/12/25 13:17:47;;;;;;;;;;;;;;;15.06;65.43;98037.94;7384709;19;19921;-68
2022/12/25 13:20:19;;;;;;;;;;;;;;;14.88;65.58;98038.38;7382136;19;19935;-68
2022/12/25 13:22:45;;;;;;;;;;;;;;;15.00;65.74;98043.19;7384630;19;19943;-69
2022/12/25 13:25:19;;;;;;;;;;;;;;;15.05;64.83;98035.44;7384152;19;19922;-69
2022/12/25 13:27:53;;;;;;;;;;;;;;;14.96;65.18;98037.44;7387852;19;19918;-69
2022/12/25 13:30:20;;;;;;;;;;;;;;;14.83;67.09;98042.63;7386639;19;19923;-69
2022/12/25 13:32:47;;;;;;;;;;;;;;;14.86;65.19;98045.72;7389915;19;19919;-69
2022/12/25 13:35:16;;;;;;;;;;;;;;;14.68;65.96;98051.50;7383948;19;19918;-69
2022/12/25 13:37:43;;;;;;;;;;;;;;;14.82;66.24;98052.44;7383762;19;19914;-69
2022/12/25 13:40:23;;;;;;;;;;;;;;;14.83;66.39;98055.94;7379822;19;19918;-69
2022/12/25 13:42:51;;;;;;;;;;;;;;;14.81;66.47;98053.47;7385766;19;19939;-70
2022/12/25 13:45:22;;;;;;;;;;;;;;;14.85;66.30;98053.91;7387263;19;19922;-70
2022/12/25 13:47:50;;;;;;;;;;;;;;;14.85;66.03;98052.09;7384895;19;19918;-70
2022/12/25 13:50:43;;;;;;;;;;;;;;;14.91;65.75;98053.97;7381705;19;19922;-69
2022/12/25 13:53:11;;;;;;;;;;;;;;;14.91;66.58;98045.97;7388394;19;19922;-70
2022/12/25 13:55:37;;;;;;;;;;;;;;;14.89;66.88;98032.03;7385100;19;19910;-69
2022/12/25 13:58:04;;;;;;;;;;;;;;;14.84;66.85;98037.09;7382644;19;19947;-69
2022/12/25 14:00:32;;;;;;;;;;;;;;;14.78;66.42;98042.38;7385133;19;20375;-69
2022/12/25 14:02:59;;;;;;;;;;;;;;;14.78;66.05;98035.22;7385809;19;20273;-69
2022/12/25 14:05:30;;;;;;;;;;;;;;;14.71;66.96;98040.47;7387350;19;20339;-69
2022/12/25 14:08:19;;;;;;;;;;;;;;;14.71;66.50;98031.66;7384924;19;19915;-70
2022/12/25 14:10:48;;;;;;;;;;;;;;;14.61;66.38;98032.00;7380938;19;19937;-69
2022/12/25 14:13:19;;;;;;;;;;;;;;;14.66;66.27;98028.72;7378723;19;19919;-69
2022/12/25 14:15:54;;;;;;;;;;;;;;;14.50;66.92;98032.44;7383443;19;19982;-69
2022/12/25 14:18:21;;;;;;;;;;;;;;;14.59;67.11;98031.34;7381909;19;19956;-68
2022/12/25 14:20:53;;;;;;;;;;;;;;;14.54;66.89;98033.75;7384493;19;19927;-68
2022/12/25 14:23:20;;;;;;;;;;;;;;;14.38;67.02;98029.47;7387895;19;19930;-69
2022/12/25 14:25:46;;;;;;;;;;;;;;;14.21;69.12;98039.50;7383248;19;20340;-68
2022/12/25 14:28:20;;;;;;;;;;;;;;;14.09;68.79;98035.69;7383141;19;19978;-69
2022/12/25 14:30:47;;;;;;;;;;;;;;;13.94;69.64;98034.88;7381208;19;19922;-68
2022/12/25 14:33:14;;;;;;;;;;;;;;;13.87;70.08;98037.44;7380245;19;19918;-68
2022/12/25 14:35:41;;;;;;;;;;;;;;;13.70;69.99;98031.50;7386039;19;19923;-68
2022/12/25 14:38:22;;;;;;;;;;;;;;;13.72;70.45;98032.16;7383726;19;19943;-69
2022/12/25 14:40:56;;;;;;;;;;;;;;;13.55;70.78;98031.50;7382041;19;19933;-68
2022/12/25 14:43:24;;;;;;;;;;;;;;;13.22;71.86;98027.47;7385939;19;19951;-69
2022/12/25 14:45:58;;;;;;;;;;;;;;;13.02;72.01;98025.34;7384308;19;19915;-69
2022/12/25 14:48:26;;;;;;;;;;;;;;;12.91;72.63;98026.63;7378033;19;19915;-69
2022/12/25 14:51:02;;;;;;;;;;;;;;;12.74;72.71;98028.59;7375307;19;19925;-69